sensor_id;sensor_type;location;lat;lon;timestamp;P1;durP1;ratioP1;P2;durP2;ratioP2
13969;SDS011;7057;49.984;8.404;2022-11-03T00:01:13;12.50;;;5.50;;
13969;SDS011;7057;49.984;8.404;2022-11-03T00:03:40;11.13;;;4.97;;
13969;SDS011;7057;49.984;8.404;2022-11-03T00:06:07;8.63;;;4.83;;
13969;SDS011;7057;49.984;8.404;2022-11-03T00:08:37;7.90;;;5.03;;
13969;SDS011;7057;49.984;8.404;2022-11-03T00:11:07;9.73;;;4.97;;
13969;SDS011;7057;49.984;8.404;2022-11-03T00:13:36;6.90;;;4.70;;
13969;SDS011;7057;49.984;8.404;2022-11-03T00:16:04;11.93;;;5.10;;
13969;SDS011;7057;49.984;8.404;2022-11-03T00:18:32;9.03;;;4.53;;
13969;SDS011;7057;49.984;8.404;2022-11-03T00:20:59;10.73;;;5.10;;
13969;SDS011;7057;49.984;8.404;2022-11-03T00:23:28;10.70;;;4.87;;
13969;SDS011;7057;49.984;8.404;2022-11-03T00:26:04;8.97;;;4.70;;
13969;SDS011;7057;49.984;8.404;2022-11-03T00:28:34;12.23;;;4.80;;
13969;SDS011;7057;49.984;8.404;2022-11-03T00:31:05;10.13;;;4.90;;
13969;SDS011;7057;49.984;8.404;2022-11-03T00:33:33;8.93;;;4.70;;
13969;SDS011;7057;49.984;8.404;2022-11-03T00:36:00;11.73;;;5.60;;
13969;SDS011;7057;49.984;8.404;2022-11-03T00:38:28;7.37;;;5.13;;
13969;SDS011;7057;49.984;8.404;2022-11-03T00:40:57;8.47;;;5.80;;
13969;SDS011;7057;49.984;8.404;2022-11-03T00:43:27;11.20;;;5.27;;
13969;SDS011;7057;49.984;8.404;2022-11-03T00:45:56;11.47;;;4.80;;
13969;SDS011;7057;49.984;8.404;2022-11-03T00:48:23;7.43;;;4.90;;
13969;SDS011;7057;49.984;8.404;2022-11-03T00:50:59;9.20;;;4.57;;
13969;SDS011;7057;49.984;8.404;2022-11-03T00:53:30;8.93;;;4.80;;
13969;SDS011;7057;49.984;8.404;2022-11-03T00:55:58;7.90;;;4.73;;
13969;SDS011;7057;49.984;8.404;2022-11-03T00:58:27;10.13;;;4.80;;
13969;SDS011;7057;49.984;8.404;2022-11-03T01:00:57;7.20;;;4.47;;
13969;SDS011;7057;49.984;8.404;2022-11-03T01:03:30;7.23;;;4.80;;
13969;SDS011;7057;49.984;8.404;2022-11-03T01:05:58;6.73;;;4.30;;
13969;SDS011;7057;49.984;8.404;2022-11-03T01:08:43;9.93;;;4.37;;
13969;SDS011;7057;49.984;8.404;2022-11-03T01:11:11;7.23;;;4.33;;
13969;SDS011;7057;49.984;8.404;2022-11-03T01:13:59;7.30;;;4.70;;
13969;SDS011;7057;49.984;8.404;2022-11-03T01:16:27;7.53;;;4.47;;
13969;SDS011;7057;49.984;8.404;2022-11-03T01:18:54;11.73;;;4.70;;
13969;SDS011;7057;49.984;8.404;2022-11-03T01:21:22;11.50;;;4.73;;
13969;SDS011;7057;49.984;8.404;2022-11-03T01:23:49;9.13;;;4.60;;
13969;SDS011;7057;49.984;8.404;2022-11-03T01:26:17;14.23;;;5.33;;
13969;SDS011;7057;49.984;8.404;2022-11-03T01:28:45;7.63;;;4.03;;
13969;SDS011;7057;49.984;8.404;2022-11-03T01:31:15;6.80;;;4.07;;
13969;SDS011;7057;49.984;8.404;2022-11-03T01:33:44;9.27;;;4.87;;
13969;SDS011;7057;49.984;8.404;2022-11-03T01:36:12;9.33;;;4.80;;
13969;SDS011;7057;49.984;8.404;2022-11-03T01:38:40;8.53;;;4.33;;
13969;SDS011;7057;49.984;8.404;2022-11-03T01:41:09;10.57;;;4.17;;
13969;SDS011;7057;49.984;8.404;2022-11-03T01:43:38;6.07;;;3.60;;
13969;SDS011;7057;49.984;8.404;2022-11-03T01:46:07;9.13;;;4.57;;
13969;SDS011;7057;49.984;8.404;2022-11-03T01:48:44;7.97;;;4.93;;
13969;SDS011;7057;49.984;8.404;2022-11-03T01:51:14;9.33;;;4.43;;
13969;SDS011;7057;49.984;8.404;2022-11-03T01:53:46;8.20;;;4.47;;
13969;SDS011;7057;49.984;8.404;2022-11-03T01:56:15;11.17;;;4.53;;
13969;SDS011;7057;49.984;8.404;2022-11-03T01:58:43;9.37;;;4.33;;
13969;SDS011;7057;49.984;8.404;2022-11-03T02:01:11;6.33;;;3.90;;
13969;SDS011;7057;49.984;8.404;2022-11-03T02:03:39;6.73;;;4.30;;
13969;SDS011;7057;49.984;8.404;2022-11-03T02:06:12;7.77;;;4.17;;
13969;SDS011;7057;49.984;8.404;2022-11-03T02:08:42;9.37;;;4.30;;
13969;SDS011;7057;49.984;8.404;2022-11-03T02:11:12;9.13;;;4.30;;
13969;SDS011;7057;49.984;8.404;2022-11-03T02:13:57;6.70;;;4.17;;
13969;SDS011;7057;49.984;8.404;2022-11-03T02:16:24;10.03;;;4.10;;
13969;SDS011;7057;49.984;8.404;2022-11-03T02:18:54;7.37;;;4.23;;
13969;SDS011;7057;49.984;8.404;2022-11-03T02:21:24;10.43;;;4.37;;
13969;SDS011;7057;49.984;8.404;2022-11-03T02:23:56;5.67;;;4.00;;
13969;SDS011;7057;49.984;8.404;2022-11-03T02:26:29;9.70;;;4.57;;
13969;SDS011;7057;49.984;8.404;2022-11-03T02:28:56;7.43;;;4.03;;
13969;SDS011;7057;49.984;8.404;2022-11-03T02:31:26;10.30;;;4.67;;
13969;SDS011;7057;49.984;8.404;2022-11-03T02:34:01;8.20;;;4.50;;
13969;SDS011;7057;49.984;8.404;2022-11-03T02:36:33;5.80;;;3.90;;
13969;SDS011;7057;49.984;8.404;2022-11-03T02:39:08;5.93;;;4.03;;
13969;SDS011;7057;49.984;8.404;2022-11-03T02:41:40;7.07;;;4.00;;
13969;SDS011;7057;49.984;8.404;2022-11-03T02:44:11;7.83;;;4.10;;
13969;SDS011;7057;49.984;8.404;2022-11-03T02:46:41;8.80;;;3.93;;
13969;SDS011;7057;49.984;8.404;2022-11-03T02:49:10;7.07;;;4.13;;
13969;SDS011;7057;49.984;8.404;2022-11-03T02:51:37;8.67;;;4.37;;
13969;SDS011;7057;49.984;8.404;2022-11-03T02:54:06;10.07;;;4.23;;
13969;SDS011;7057;49.984;8.404;2022-11-03T02:56:37;10.17;;;4.70;;
13969;SDS011;7057;49.984;8.404;2022-11-03T02:59:14;10.93;;;4.43;;
13969;SDS011;7057;49.984;8.404;2022-11-03T03:01:47;9.63;;;4.53;;
13969;SDS011;7057;49.984;8.404;2022-11-03T03:04:21;5.80;;;4.07;;
13969;SDS011;7057;49.984;8.404;2022-11-03T03:06:53;10.13;;;3.97;;
13969;SDS011;7057;49.984;8.404;2022-11-03T03:09:28;12.20;;;4.63;;
13969;SDS011;7057;49.984;8.404;2022-11-03T03:12:00;7.40;;;4.07;;
13969;SDS011;7057;49.984;8.404;2022-11-03T03:14:32;8.27;;;4.30;;
13969;SDS011;7057;49.984;8.404;2022-11-03T03:17:04;7.80;;;4.00;;
13969;SDS011;7057;49.984;8.404;2022-11-03T03:19:37;8.40;;;4.20;;
13969;SDS011;7057;49.984;8.404;2022-11-03T03:22:14;8.10;;;4.03;;
13969;SDS011;7057;49.984;8.404;2022-11-03T03:24:50;10.37;;;4.27;;
13969;SDS011;7057;49.984;8.404;2022-11-03T03:27:23;9.80;;;4.43;;
13969;SDS011;7057;49.984;8.404;2022-11-03T03:29:53;7.37;;;3.70;;
13969;SDS011;7057;49.984;8.404;2022-11-03T03:32:24;8.87;;;4.30;;
13969;SDS011;7057;49.984;8.404;2022-11-03T03:34:54;8.23;;;4.23;;
13969;SDS011;7057;49.984;8.404;2022-11-03T03:37:22;8.37;;;4.20;;
13969;SDS011;7057;49.984;8.404;2022-11-03T03:39:52;8.00;;;3.53;;
13969;SDS011;7057;49.984;8.404;2022-11-03T03:42:25;5.63;;;3.80;;
13969;SDS011;7057;49.984;8.404;2022-11-03T03:44:55;8.43;;;3.90;;
13969;SDS011;7057;49.984;8.404;2022-11-03T03:47:26;7.13;;;4.30;;
13969;SDS011;7057;49.984;8.404;2022-11-03T03:49:55;6.90;;;3.97;;
13969;SDS011;7057;49.984;8.404;2022-11-03T03:52:23;6.97;;;3.93;;
13969;SDS011;7057;49.984;8.404;2022-11-03T03:54:50;8.07;;;4.17;;
13969;SDS011;7057;49.984;8.404;2022-11-03T03:57:19;5.80;;;4.27;;
13969;SDS011;7057;49.984;8.404;2022-11-03T03:59:50;10.53;;;4.23;;
13969;SDS011;7057;49.984;8.404;2022-11-03T04:02:17;8.33;;;4.10;;
13969;SDS011;7057;49.984;8.404;2022-11-03T04:04:45;6.47;;;4.00;;
13969;SDS011;7057;49.984;8.404;2022-11-03T04:07:12;9.10;;;4.00;;
13969;SDS011;7057;49.984;8.404;2022-11-03T04:09:57;10.37;;;4.77;;
13969;SDS011;7057;49.984;8.404;2022-11-03T04:12:24;10.40;;;4.43;;
13969;SDS011;7057;49.984;8.404;2022-11-03T04:15:12;10.90;;;4.55;;
13969;SDS011;7057;49.984;8.404;2022-11-03T04:17:56;9.03;;;4.80;;
13969;SDS011;7057;49.984;8.404;2022-11-03T04:20:41;6.87;;;4.43;;
13969;SDS011;7057;49.984;8.404;2022-11-03T04:23:25;8.03;;;4.73;;
13969;SDS011;7057;49.984;8.404;2022-11-03T04:25:53;9.23;;;4.43;;
13969;SDS011;7057;49.984;8.404;2022-11-03T04:28:23;11.10;;;4.20;;
13969;SDS011;7057;49.984;8.404;2022-11-03T04:30:53;10.77;;;5.00;;
13969;SDS011;7057;49.984;8.404;2022-11-03T04:33:22;7.30;;;4.57;;
13969;SDS011;7057;49.984;8.404;2022-11-03T04:35:50;7.83;;;4.23;;
13969;SDS011;7057;49.984;8.404;2022-11-03T04:38:19;9.50;;;3.90;;
13969;SDS011;7057;49.984;8.404;2022-11-03T04:40:49;9.10;;;3.83;;
13969;SDS011;7057;49.984;8.404;2022-11-03T04:43:20;9.17;;;4.37;;
13969;SDS011;7057;49.984;8.404;2022-11-03T04:45:48;5.87;;;4.00;;
13969;SDS011;7057;49.984;8.404;2022-11-03T04:48:18;10.13;;;4.00;;
13969;SDS011;7057;49.984;8.404;2022-11-03T04:50:48;7.47;;;3.83;;
13969;SDS011;7057;49.984;8.404;2022-11-03T04:53:18;7.43;;;4.10;;
13969;SDS011;7057;49.984;8.404;2022-11-03T04:55:48;7.50;;;4.43;;
13969;SDS011;7057;49.984;8.404;2022-11-03T04:58:19;8.60;;;4.00;;
13969;SDS011;7057;49.984;8.404;2022-11-03T05:00:47;10.17;;;4.20;;
13969;SDS011;7057;49.984;8.404;2022-11-03T05:03:20;6.10;;;3.57;;
13969;SDS011;7057;49.984;8.404;2022-11-03T05:05:49;7.23;;;3.63;;
13969;SDS011;7057;49.984;8.404;2022-11-03T05:08:16;9.43;;;3.63;;
13969;SDS011;7057;49.984;8.404;2022-11-03T05:10:45;5.67;;;4.47;;
13969;SDS011;7057;49.984;8.404;2022-11-03T05:13:14;6.60;;;3.67;;
13969;SDS011;7057;49.984;8.404;2022-11-03T05:15:46;7.70;;;4.50;;
13969;SDS011;7057;49.984;8.404;2022-11-03T05:18:16;7.07;;;4.33;;
13969;SDS011;7057;49.984;8.404;2022-11-03T05:20:48;6.93;;;4.67;;
13969;SDS011;7057;49.984;8.404;2022-11-03T05:23:18;10.10;;;4.50;;
13969;SDS011;7057;49.984;8.404;2022-11-03T05:25:47;8.97;;;4.30;;
13969;SDS011;7057;49.984;8.404;2022-11-03T05:28:19;8.73;;;4.10;;
13969;SDS011;7057;49.984;8.404;2022-11-03T05:30:48;9.13;;;3.97;;
13969;SDS011;7057;49.984;8.404;2022-11-03T05:33:17;7.63;;;4.30;;
13969;SDS011;7057;49.984;8.404;2022-11-03T05:35:49;9.90;;;4.47;;
13969;SDS011;7057;49.984;8.404;2022-11-03T05:38:17;11.30;;;4.43;;
13969;SDS011;7057;49.984;8.404;2022-11-03T05:40:48;13.13;;;4.37;;
13969;SDS011;7057;49.984;8.404;2022-11-03T05:43:17;4.40;;;3.63;;
13969;SDS011;7057;49.984;8.404;2022-11-03T05:45:45;8.60;;;4.10;;
13969;SDS011;7057;49.984;8.404;2022-11-03T05:48:16;10.33;;;4.50;;
13969;SDS011;7057;49.984;8.404;2022-11-03T05:50:49;8.80;;;4.03;;
13969;SDS011;7057;49.984;8.404;2022-11-03T05:53:28;6.53;;;3.77;;
13969;SDS011;7057;49.984;8.404;2022-11-03T05:55:57;11.23;;;4.80;;
13969;SDS011;7057;49.984;8.404;2022-11-03T05:58:28;12.97;;;4.33;;
13969;SDS011;7057;49.984;8.404;2022-11-03T06:00:58;6.77;;;3.87;;
13969;SDS011;7057;49.984;8.404;2022-11-03T06:03:29;9.07;;;4.73;;
13969;SDS011;7057;49.984;8.404;2022-11-03T06:06:01;7.27;;;4.40;;
13969;SDS011;7057;49.984;8.404;2022-11-03T06:08:36;7.17;;;4.47;;
13969;SDS011;7057;49.984;8.404;2022-11-03T06:11:04;8.27;;;4.23;;
13969;SDS011;7057;49.984;8.404;2022-11-03T06:13:31;6.07;;;3.93;;
13969;SDS011;7057;49.984;8.404;2022-11-03T06:16:01;7.00;;;4.23;;
13969;SDS011;7057;49.984;8.404;2022-11-03T06:18:31;7.87;;;4.40;;
13969;SDS011;7057;49.984;8.404;2022-11-03T06:21:04;9.80;;;4.73;;
13969;SDS011;7057;49.984;8.404;2022-11-03T06:23:34;6.93;;;4.17;;
13969;SDS011;7057;49.984;8.404;2022-11-03T06:26:02;9.07;;;4.73;;
13969;SDS011;7057;49.984;8.404;2022-11-03T06:28:35;11.63;;;4.93;;
13969;SDS011;7057;49.984;8.404;2022-11-03T06:31:05;6.97;;;4.40;;
13969;SDS011;7057;49.984;8.404;2022-11-03T06:33:43;7.80;;;4.17;;
13969;SDS011;7057;49.984;8.404;2022-11-03T06:36:12;10.97;;;4.13;;
13969;SDS011;7057;49.984;8.404;2022-11-03T06:38:44;11.40;;;4.73;;
13969;SDS011;7057;49.984;8.404;2022-11-03T06:41:17;10.53;;;4.27;;
13969;SDS011;7057;49.984;8.404;2022-11-03T06:43:46;10.80;;;3.93;;
13969;SDS011;7057;49.984;8.404;2022-11-03T06:46:14;12.07;;;4.73;;
13969;SDS011;7057;49.984;8.404;2022-11-03T06:48:45;10.27;;;4.63;;
13969;SDS011;7057;49.984;8.404;2022-11-03T06:51:18;9.97;;;4.93;;
13969;SDS011;7057;49.984;8.404;2022-11-03T06:53:46;10.13;;;4.80;;
13969;SDS011;7057;49.984;8.404;2022-11-03T06:56:15;8.60;;;4.73;;
13969;SDS011;7057;49.984;8.404;2022-11-03T06:58:46;7.43;;;4.73;;
13969;SDS011;7057;49.984;8.404;2022-11-03T07:01:15;7.87;;;4.93;;
13969;SDS011;7057;49.984;8.404;2022-11-03T07:03:47;9.60;;;5.30;;
13969;SDS011;7057;49.984;8.404;2022-11-03T07:06:18;6.90;;;5.20;;
13969;SDS011;7057;49.984;8.404;2022-11-03T07:08:49;11.10;;;4.77;;
13969;SDS011;7057;49.984;8.404;2022-11-03T07:11:19;12.50;;;5.13;;
13969;SDS011;7057;49.984;8.404;2022-11-03T07:13:49;12.53;;;5.70;;
13969;SDS011;7057;49.984;8.404;2022-11-03T07:16:20;11.33;;;5.50;;
13969;SDS011;7057;49.984;8.404;2022-11-03T07:18:53;10.93;;;5.73;;
13969;SDS011;7057;49.984;8.404;2022-11-03T07:21:35;10.10;;;5.23;;
13969;SDS011;7057;49.984;8.404;2022-11-03T07:24:11;9.73;;;5.33;;
13969;SDS011;7057;49.984;8.404;2022-11-03T07:26:41;11.00;;;5.83;;
13969;SDS011;7057;49.984;8.404;2022-11-03T07:29:10;8.40;;;5.10;;
13969;SDS011;7057;49.984;8.404;2022-11-03T07:31:42;15.20;;;5.93;;
13969;SDS011;7057;49.984;8.404;2022-11-03T07:34:10;14.80;;;5.40;;
13969;SDS011;7057;49.984;8.404;2022-11-03T07:36:46;13.67;;;5.73;;
13969;SDS011;7057;49.984;8.404;2022-11-03T07:39:15;9.70;;;5.63;;
13969;SDS011;7057;49.984;8.404;2022-11-03T07:41:45;9.87;;;5.30;;
13969;SDS011;7057;49.984;8.404;2022-11-03T07:44:14;19.37;;;6.30;;
13969;SDS011;7057;49.984;8.404;2022-11-03T07:46:45;8.97;;;6.00;;
13969;SDS011;7057;49.984;8.404;2022-11-03T07:49:18;10.47;;;5.13;;
13969;SDS011;7057;49.984;8.404;2022-11-03T07:51:52;11.03;;;6.60;;
13969;SDS011;7057;49.984;8.404;2022-11-03T07:54:21;8.97;;;5.67;;
13969;SDS011;7057;49.984;8.404;2022-11-03T07:56:52;10.67;;;5.63;;
13969;SDS011;7057;49.984;8.404;2022-11-03T07:59:22;11.90;;;6.03;;
13969;SDS011;7057;49.984;8.404;2022-11-03T08:01:54;10.10;;;6.00;;
13969;SDS011;7057;49.984;8.404;2022-11-03T08:04:23;10.80;;;6.47;;
13969;SDS011;7057;49.984;8.404;2022-11-03T08:06:53;12.57;;;6.10;;
13969;SDS011;7057;49.984;8.404;2022-11-03T08:09:20;7.30;;;5.30;;
13969;SDS011;7057;49.984;8.404;2022-11-03T08:11:48;12.07;;;6.03;;
13969;SDS011;7057;49.984;8.404;2022-11-03T08:14:16;15.87;;;6.40;;
13969;SDS011;7057;49.984;8.404;2022-11-03T08:16:43;8.40;;;5.67;;
13969;SDS011;7057;49.984;8.404;2022-11-03T08:19:10;13.33;;;6.40;;
13969;SDS011;7057;49.984;8.404;2022-11-03T08:21:37;11.10;;;6.20;;
13969;SDS011;7057;49.984;8.404;2022-11-03T08:24:06;11.83;;;6.10;;
13969;SDS011;7057;49.984;8.404;2022-11-03T08:26:33;12.57;;;6.87;;
13969;SDS011;7057;49.984;8.404;2022-11-03T08:29:00;13.27;;;7.07;;
13969;SDS011;7057;49.984;8.404;2022-11-03T08:31:28;11.63;;;6.37;;
13969;SDS011;7057;49.984;8.404;2022-11-03T08:33:55;16.33;;;6.60;;
13969;SDS011;7057;49.984;8.404;2022-11-03T08:36:22;15.93;;;7.07;;
13969;SDS011;7057;49.984;8.404;2022-11-03T08:38:50;14.43;;;7.87;;
13969;SDS011;7057;49.984;8.404;2022-11-03T08:41:18;13.50;;;7.03;;
13969;SDS011;7057;49.984;8.404;2022-11-03T08:43:46;13.07;;;7.23;;
13969;SDS011;7057;49.984;8.404;2022-11-03T08:46:13;16.13;;;7.60;;
13969;SDS011;7057;49.984;8.404;2022-11-03T08:48:40;17.77;;;7.97;;
13969;SDS011;7057;49.984;8.404;2022-11-03T08:51:07;17.30;;;6.33;;
13969;SDS011;7057;49.984;8.404;2022-11-03T08:53:38;9.83;;;6.83;;
13969;SDS011;7057;49.984;8.404;2022-11-03T08:56:07;13.97;;;6.87;;
13969;SDS011;7057;49.984;8.404;2022-11-03T08:58:36;14.30;;;6.87;;
13969;SDS011;7057;49.984;8.404;2022-11-03T09:01:03;14.67;;;6.87;;
13969;SDS011;7057;49.984;8.404;2022-11-03T09:03:30;12.73;;;6.33;;
13969;SDS011;7057;49.984;8.404;2022-11-03T09:05:57;14.07;;;6.50;;
13969;SDS011;7057;49.984;8.404;2022-11-03T09:08:25;10.90;;;5.83;;
13969;SDS011;7057;49.984;8.404;2022-11-03T09:10:52;9.33;;;5.77;;
13969;SDS011;7057;49.984;8.404;2022-11-03T09:13:19;10.50;;;6.47;;
13969;SDS011;7057;49.984;8.404;2022-11-03T09:15:47;12.43;;;5.93;;
13969;SDS011;7057;49.984;8.404;2022-11-03T09:18:15;13.97;;;6.30;;
13969;SDS011;7057;49.984;8.404;2022-11-03T09:20:42;10.37;;;5.67;;
13969;SDS011;7057;49.984;8.404;2022-11-03T09:23:09;10.40;;;5.60;;
13969;SDS011;7057;49.984;8.404;2022-11-03T09:25:37;11.73;;;5.73;;
13969;SDS011;7057;49.984;8.404;2022-11-03T09:28:04;12.87;;;5.67;;
13969;SDS011;7057;49.984;8.404;2022-11-03T09:30:31;15.87;;;6.13;;
13969;SDS011;7057;49.984;8.404;2022-11-03T09:32:59;13.80;;;5.87;;
13969;SDS011;7057;49.984;8.404;2022-11-03T09:35:27;18.87;;;6.60;;
13969;SDS011;7057;49.984;8.404;2022-11-03T09:37:54;8.97;;;5.47;;
13969;SDS011;7057;49.984;8.404;2022-11-03T09:40:22;9.67;;;6.03;;
13969;SDS011;7057;49.984;8.404;2022-11-03T09:42:50;10.53;;;5.90;;
13969;SDS011;7057;49.984;8.404;2022-11-03T09:45:17;9.03;;;5.67;;
13969;SDS011;7057;49.984;8.404;2022-11-03T09:47:45;10.87;;;5.87;;
13969;SDS011;7057;49.984;8.404;2022-11-03T09:50:14;15.60;;;6.07;;
13969;SDS011;7057;49.984;8.404;2022-11-03T09:52:43;10.40;;;5.60;;
13969;SDS011;7057;49.984;8.404;2022-11-03T09:55:12;9.27;;;6.07;;
13969;SDS011;7057;49.984;8.404;2022-11-03T09:57:40;14.30;;;5.67;;
13969;SDS011;7057;49.984;8.404;2022-11-03T10:00:12;11.27;;;5.67;;
13969;SDS011;7057;49.984;8.404;2022-11-03T10:02:44;9.97;;;5.47;;
13969;SDS011;7057;49.984;8.404;2022-11-03T10:05:13;13.00;;;5.87;;
13969;SDS011;7057;49.984;8.404;2022-11-03T10:07:46;9.33;;;5.70;;
13969;SDS011;7057;49.984;8.404;2022-11-03T10:10:14;9.67;;;5.83;;
13969;SDS011;7057;49.984;8.404;2022-11-03T10:12:43;8.97;;;5.47;;
13969;SDS011;7057;49.984;8.404;2022-11-03T10:15:15;10.80;;;5.73;;
13969;SDS011;7057;49.984;8.404;2022-11-03T10:17:43;12.37;;;6.00;;
13969;SDS011;7057;49.984;8.404;2022-11-03T10:20:11;8.57;;;5.53;;
13969;SDS011;7057;49.984;8.404;2022-11-03T10:22:42;10.40;;;3.60;;
13969;SDS011;7057;49.984;8.404;2022-11-03T10:25:26;9.13;;;4.73;;
13969;SDS011;7057;49.984;8.404;2022-11-03T10:28:15;11.00;;;5.63;;
13969;SDS011;7057;49.984;8.404;2022-11-03T10:30:50;12.00;;;4.93;;
13969;SDS011;7057;49.984;8.404;2022-11-03T10:33:26;8.53;;;4.83;;
13969;SDS011;7057;49.984;8.404;2022-11-03T10:35:59;11.43;;;5.33;;
13969;SDS011;7057;49.984;8.404;2022-11-03T10:38:29;9.43;;;5.13;;
13969;SDS011;7057;49.984;8.404;2022-11-03T10:41:08;11.13;;;4.50;;
13969;SDS011;7057;49.984;8.404;2022-11-03T10:43:37;9.33;;;4.90;;
13969;SDS011;7057;49.984;8.404;2022-11-03T10:46:12;7.53;;;3.93;;
13969;SDS011;7057;49.984;8.404;2022-11-03T10:48:42;10.23;;;4.50;;
13969;SDS011;7057;49.984;8.404;2022-11-03T10:51:11;9.87;;;4.27;;
13969;SDS011;7057;49.984;8.404;2022-11-03T10:53:39;7.77;;;4.43;;
13969;SDS011;7057;49.984;8.404;2022-11-03T10:56:07;5.63;;;4.27;;
13969;SDS011;7057;49.984;8.404;2022-11-03T10:58:35;6.23;;;4.03;;
13969;SDS011;7057;49.984;8.404;2022-11-03T11:01:04;8.77;;;4.50;;
13969;SDS011;7057;49.984;8.404;2022-11-03T11:03:32;8.17;;;4.30;;
13969;SDS011;7057;49.984;8.404;2022-11-03T11:06:04;7.43;;;4.07;;
13969;SDS011;7057;49.984;8.404;2022-11-03T11:08:42;8.30;;;4.30;;
13969;SDS011;7057;49.984;8.404;2022-11-03T11:11:12;7.13;;;4.00;;
13969;SDS011;7057;49.984;8.404;2022-11-03T11:13:41;7.50;;;4.33;;
13969;SDS011;7057;49.984;8.404;2022-11-03T11:19:09;7.73;;;3.87;;
13969;SDS011;7057;49.984;8.404;2022-11-03T11:21:59;6.37;;;4.33;;
13969;SDS011;7057;49.984;8.404;2022-11-03T11:33:29;9.03;;;4.07;;
13969;SDS011;7057;49.984;8.404;2022-11-03T11:38:58;7.60;;;4.37;;
13969;SDS011;7057;49.984;8.404;2022-11-03T11:53:09;8.97;;;4.90;;
13969;SDS011;7057;49.984;8.404;2022-11-03T11:55:52;7.03;;;4.50;;
13969;SDS011;7057;49.984;8.404;2022-11-03T11:58:24;12.10;;;5.13;;
13969;SDS011;7057;49.984;8.404;2022-11-03T12:00:57;6.10;;;4.73;;
13969;SDS011;7057;49.984;8.404;2022-11-03T12:03:26;10.97;;;5.37;;
13969;SDS011;7057;49.984;8.404;2022-11-03T12:05:56;9.23;;;4.80;;
13969;SDS011;7057;49.984;8.404;2022-11-03T12:08:24;7.57;;;5.10;;
13969;SDS011;7057;49.984;8.404;2022-11-03T12:10:54;9.30;;;5.10;;
13969;SDS011;7057;49.984;8.404;2022-11-03T12:16:25;6.87;;;4.37;;
13969;SDS011;7057;49.984;8.404;2022-11-03T12:18:53;10.97;;;4.70;;
13969;SDS011;7057;49.984;8.404;2022-11-03T12:24:24;10.33;;;4.57;;
13969;SDS011;7057;49.984;8.404;2022-11-03T12:26:51;8.30;;;4.57;;
13969;SDS011;7057;49.984;8.404;2022-11-03T12:29:20;7.90;;;4.90;;
13969;SDS011;7057;49.984;8.404;2022-11-03T12:31:47;10.37;;;4.13;;
13969;SDS011;7057;49.984;8.404;2022-11-03T12:34:15;9.30;;;4.27;;
13969;SDS011;7057;49.984;8.404;2022-11-03T12:36:42;8.43;;;4.67;;
13969;SDS011;7057;49.984;8.404;2022-11-03T12:39:09;12.17;;;4.77;;
13969;SDS011;7057;49.984;8.404;2022-11-03T12:41:37;8.37;;;4.57;;
13969;SDS011;7057;49.984;8.404;2022-11-03T12:44:04;7.90;;;4.60;;
13969;SDS011;7057;49.984;8.404;2022-11-03T12:46:33;10.27;;;4.73;;
13969;SDS011;7057;49.984;8.404;2022-11-03T12:49:00;9.10;;;4.43;;
13969;SDS011;7057;49.984;8.404;2022-11-03T12:51:27;8.00;;;4.57;;
13969;SDS011;7057;49.984;8.404;2022-11-03T12:53:54;10.30;;;4.90;;
13969;SDS011;7057;49.984;8.404;2022-11-03T12:56:22;8.87;;;4.43;;
13969;SDS011;7057;49.984;8.404;2022-11-03T12:58:49;10.43;;;4.60;;
13969;SDS011;7057;49.984;8.404;2022-11-03T13:01:16;9.60;;;4.47;;
13969;SDS011;7057;49.984;8.404;2022-11-03T13:03:45;7.63;;;4.40;;
13969;SDS011;7057;49.984;8.404;2022-11-03T13:06:12;8.23;;;4.17;;
13969;SDS011;7057;49.984;8.404;2022-11-03T13:08:40;9.27;;;3.73;;
13969;SDS011;7057;49.984;8.404;2022-11-03T13:11:07;6.17;;;3.87;;
13969;SDS011;7057;49.984;8.404;2022-11-03T13:13:54;8.10;;;4.50;;
13969;SDS011;7057;49.984;8.404;2022-11-03T13:16:22;7.57;;;4.60;;
13969;SDS011;7057;49.984;8.404;2022-11-03T13:18:50;7.80;;;4.07;;
13969;SDS011;7057;49.984;8.404;2022-11-03T13:21:17;7.70;;;4.07;;
13969;SDS011;7057;49.984;8.404;2022-11-03T13:23:45;7.80;;;4.53;;
13969;SDS011;7057;49.984;8.404;2022-11-03T13:26:12;5.23;;;3.90;;
13969;SDS011;7057;49.984;8.404;2022-11-03T13:28:39;12.57;;;4.73;;
13969;SDS011;7057;49.984;8.404;2022-11-03T13:31:07;9.83;;;4.30;;
13969;SDS011;7057;49.984;8.404;2022-11-03T13:33:34;7.77;;;4.00;;
13969;SDS011;7057;49.984;8.404;2022-11-03T13:36:03;6.77;;;3.90;;
13969;SDS011;7057;49.984;8.404;2022-11-03T13:38:31;8.30;;;4.43;;
13969;SDS011;7057;49.984;8.404;2022-11-03T13:40:58;7.13;;;4.03;;
13969;SDS011;7057;49.984;8.404;2022-11-03T13:43:25;8.90;;;4.17;;
13969;SDS011;7057;49.984;8.404;2022-11-03T13:45:53;8.03;;;4.23;;
13969;SDS011;7057;49.984;8.404;2022-11-03T13:48:23;5.77;;;4.17;;
13969;SDS011;7057;49.984;8.404;2022-11-03T13:50:50;7.20;;;4.47;;
13969;SDS011;7057;49.984;8.404;2022-11-03T13:53:19;6.87;;;4.00;;
13969;SDS011;7057;49.984;8.404;2022-11-03T13:55:46;8.00;;;4.03;;
13969;SDS011;7057;49.984;8.404;2022-11-03T13:58:13;7.13;;;4.60;;
13969;SDS011;7057;49.984;8.404;2022-11-03T14:00:41;9.07;;;5.73;;
13969;SDS011;7057;49.984;8.404;2022-11-03T14:03:08;10.63;;;5.03;;
13969;SDS011;7057;49.984;8.404;2022-11-03T14:05:36;10.27;;;4.53;;
13969;SDS011;7057;49.984;8.404;2022-11-03T14:08:03;7.67;;;4.80;;
13969;SDS011;7057;49.984;8.404;2022-11-03T14:10:32;6.80;;;4.77;;
13969;SDS011;7057;49.984;8.404;2022-11-03T14:12:59;8.17;;;4.57;;
13969;SDS011;7057;49.984;8.404;2022-11-03T14:15:25;9.97;;;4.90;;
13969;SDS011;7057;49.984;8.404;2022-11-03T14:17:53;5.97;;;4.13;;
13969;SDS011;7057;49.984;8.404;2022-11-03T14:20:20;7.37;;;3.83;;
13969;SDS011;7057;49.984;8.404;2022-11-03T14:22:47;6.63;;;4.23;;
13969;SDS011;7057;49.984;8.404;2022-11-03T14:25:14;7.87;;;4.30;;
13969;SDS011;7057;49.984;8.404;2022-11-03T14:27:46;7.63;;;4.33;;
13969;SDS011;7057;49.984;8.404;2022-11-03T14:30:13;5.80;;;4.30;;
13969;SDS011;7057;49.984;8.404;2022-11-03T14:32:41;10.17;;;4.80;;
13969;SDS011;7057;49.984;8.404;2022-11-03T14:35:08;9.40;;;4.80;;
13969;SDS011;7057;49.984;8.404;2022-11-03T14:37:36;7.87;;;4.07;;
13969;SDS011;7057;49.984;8.404;2022-11-03T14:40:03;9.20;;;4.23;;
13969;SDS011;7057;49.984;8.404;2022-11-03T14:42:31;8.27;;;4.30;;
13969;SDS011;7057;49.984;8.404;2022-11-03T14:44:59;7.17;;;4.33;;
13969;SDS011;7057;49.984;8.404;2022-11-03T14:47:26;7.10;;;3.60;;
13969;SDS011;7057;49.984;8.404;2022-11-03T14:49:55;8.43;;;4.37;;
13969;SDS011;7057;49.984;8.404;2022-11-03T14:52:23;9.10;;;3.73;;
13969;SDS011;7057;49.984;8.404;2022-11-03T14:54:50;5.57;;;3.77;;
13969;SDS011;7057;49.984;8.404;2022-11-03T14:57:18;5.93;;;3.83;;
13969;SDS011;7057;49.984;8.404;2022-11-03T14:59:45;6.07;;;3.90;;
13969;SDS011;7057;49.984;8.404;2022-11-03T15:02:13;9.30;;;5.00;;
13969;SDS011;7057;49.984;8.404;2022-11-03T15:04:40;9.27;;;4.20;;
13969;SDS011;7057;49.984;8.404;2022-11-03T15:07:08;12.17;;;5.40;;
13969;SDS011;7057;49.984;8.404;2022-11-03T15:09:35;11.97;;;6.87;;
13969;SDS011;7057;49.984;8.404;2022-11-03T15:12:02;14.27;;;5.90;;
13969;SDS011;7057;49.984;8.404;2022-11-03T15:14:29;14.80;;;5.30;;
13969;SDS011;7057;49.984;8.404;2022-11-03T15:16:57;11.57;;;5.27;;
13969;SDS011;7057;49.984;8.404;2022-11-03T15:19:25;9.87;;;5.87;;
13969;SDS011;7057;49.984;8.404;2022-11-03T15:21:52;9.07;;;5.10;;
13969;SDS011;7057;49.984;8.404;2022-11-03T15:24:19;6.57;;;4.30;;
13969;SDS011;7057;49.984;8.404;2022-11-03T15:26:47;12.30;;;4.87;;
13969;SDS011;7057;49.984;8.404;2022-11-03T15:29:14;8.70;;;3.83;;
13969;SDS011;7057;49.984;8.404;2022-11-03T15:31:42;8.87;;;4.23;;
13969;SDS011;7057;49.984;8.404;2022-11-03T15:34:09;5.97;;;3.70;;
13969;SDS011;7057;49.984;8.404;2022-11-03T15:36:38;7.27;;;4.00;;
13969;SDS011;7057;49.984;8.404;2022-11-03T15:39:05;11.07;;;4.40;;
13969;SDS011;7057;49.984;8.404;2022-11-03T15:41:32;8.80;;;4.57;;
13969;SDS011;7057;49.984;8.404;2022-11-03T15:43:59;8.20;;;4.17;;